createdAt,value
2023-05-19T00:01:18.364Z,102752.75
2023-05-19T00:03:52.890Z,102757.81
2023-05-19T00:06:27.672Z,102752.41
2023-05-19T00:08:59.220Z,102753.09
2023-05-19T00:11:29.461Z,102754.28
2023-05-19T00:14:00.271Z,102744.31
2023-05-19T00:16:30.786Z,102748.56
2023-05-19T00:19:01.520Z,102759.75
2023-05-19T00:21:33.114Z,102748.34
2023-05-19T00:24:03.102Z,102754.50
2023-05-19T00:26:32.932Z,102745.44
2023-05-19T00:29:07.404Z,102742.88
2023-05-19T00:31:37.442Z,102749.84
2023-05-19T00:34:07.569Z,102755.50
2023-05-19T00:36:44.969Z,102752.69
2023-05-19T00:39:17.198Z,102755.16
2023-05-19T00:41:46.953Z,102748.88
2023-05-19T00:44:16.889Z,102753.91
2023-05-19T00:46:46.770Z,102750.34
2023-05-19T00:49:16.886Z,102749.22
2023-05-19T00:51:48.352Z,102752.75
2023-05-19T00:54:18.480Z,102749.00
2023-05-19T00:56:50.242Z,102748.69
2023-05-19T00:59:20.811Z,102753.06
2023-05-19T01:01:50.574Z,102759.97
2023-05-19T01:04:21.978Z,102743.31
2023-05-19T01:06:55.254Z,102753.06
2023-05-19T01:09:25.587Z,102756.50
2023-05-19T01:11:55.281Z,102756.16
2023-05-19T01:14:25.442Z,102752.53
2023-05-19T01:16:59.163Z,102758.78
2023-05-19T01:19:43.803Z,102755.31
2023-05-19T01:22:24.590Z,102751.94
2023-05-19T01:25:07.353Z,102750.66
2023-05-19T01:28:03.857Z,102751.81
2023-05-19T01:30:38.550Z,102755.16
2023-05-19T01:33:10.222Z,102750.69
2023-05-19T01:35:43.081Z,102752.47
2023-05-19T01:38:13.733Z,102754.19
2023-05-19T01:40:44.710Z,102753.31
2023-05-19T01:43:19.383Z,102748.00
2023-05-19T01:45:52.531Z,102754.13
2023-05-19T01:48:22.713Z,102750.56
2023-05-19T01:50:52.975Z,102754.97
2023-05-19T01:53:22.767Z,102746.78
2023-05-19T01:55:53.579Z,102747.50
2023-05-19T01:58:27.536Z,102746.63
2023-05-19T02:01:01.957Z,102739.56
2023-05-19T02:03:39.093Z,102757.88
2023-05-19T02:06:16.467Z,102740.47
2023-05-19T02:08:52.077Z,102743.94
2023-05-19T02:11:36.026Z,102742.13
2023-05-19T02:14:10.276Z,102732.59
2023-05-19T02:16:42.970Z,102732.53
2023-05-19T02:19:21.796Z,102728.28
2023-05-19T02:21:52.536Z,102737.47
2023-05-19T02:24:25.902Z,102736.69
2023-05-19T02:26:55.992Z,102737.34
2023-05-19T02:29:26.185Z,102736.34
2023-05-19T02:31:57.628Z,102734.72
2023-05-19T02:34:27.468Z,102732.19
2023-05-19T02:36:58.132Z,102731.44
2023-05-19T02:39:29.652Z,102732.09
2023-05-19T02:41:59.721Z,102733.84
2023-05-19T02:44:29.598Z,102726.78
2023-05-19T02:47:02.058Z,102727.84
2023-05-19T02:49:36.264Z,102728.31
2023-05-19T02:52:07.149Z,102726.69
2023-05-19T02:54:36.891Z,102726.97
2023-05-19T02:57:07.405Z,102725.03
2023-05-19T02:59:37.629Z,102729.72
2023-05-19T03:02:09.518Z,102725.84
2023-05-19T03:04:41.977Z,102726.75
2023-05-19T03:07:13.637Z,102727.50
2023-05-19T03:09:43.359Z,102723.06
2023-05-19T03:12:13.666Z,102737.88
2023-05-19T03:14:44.072Z,102737.41
2023-05-19T03:17:15.887Z,102733.19
2023-05-19T03:19:45.851Z,102734.09
2023-05-19T03:22:16.044Z,102733.47
2023-05-19T03:24:45.827Z,102730.91
2023-05-19T03:27:16.989Z,102727.53
2023-05-19T03:29:46.837Z,102723.34
2023-05-19T03:32:19.275Z,102728.13
2023-05-19T03:34:49.321Z,102730.13
2023-05-19T03:37:19.947Z,102731.16
2023-05-19T03:39:49.752Z,102724.88
2023-05-19T03:42:20.128Z,102737.31
2023-05-19T03:44:50.017Z,102732.19
2023-05-19T03:47:22.147Z,102737.53
2023-05-19T03:50:12.211Z,102736.09
2023-05-19T03:52:55.930Z,102743.16
2023-05-19T03:55:31.219Z,102741.31
2023-05-19T03:58:01.755Z,102737.16
2023-05-19T04:00:32.553Z,102743.38
2023-05-19T04:03:04.916Z,102735.81
2023-05-19T04:05:34.828Z,102739.53
2023-05-19T04:08:04.984Z,102744.31
2023-05-19T04:10:34.762Z,102740.88
2023-05-19T04:13:05.026Z,102737.81
2023-05-19T04:15:34.899Z,102736.13
2023-05-19T04:18:06.595Z,102740.16
2023-05-19T04:20:36.481Z,102735.28
2023-05-19T04:23:06.568Z,102731.06
2023-05-19T04:25:37.119Z,102735.72
2023-05-19T04:28:08.070Z,102734.28
2023-05-19T04:30:38.997Z,102729.25
2023-05-19T04:33:11.131Z,102724.31
2023-05-19T04:35:40.992Z,102729.00
2023-05-19T04:38:13.541Z,102723.34
2023-05-19T04:40:44.723Z,102731.69
2023-05-19T04:43:16.088Z,102729.25
2023-05-19T04:45:47.021Z,102727.88
2023-05-19T04:48:19.577Z,102723.22
2023-05-19T04:50:49.826Z,102728.00
2023-05-19T04:53:22.445Z,102728.44
2023-05-19T04:55:52.216Z,102734.22
2023-05-19T04:58:22.479Z,102729.44
2023-05-19T05:00:53.006Z,102732.66
2023-05-19T05:03:24.933Z,102733.03
2023-05-19T05:05:54.820Z,102727.56
2023-05-19T05:08:25.284Z,102733.41
2023-05-19T05:10:56.692Z,102739.19
2023-05-19T05:13:27.447Z,102729.13
2023-05-19T05:15:58.269Z,102733.44
2023-05-19T05:18:31.002Z,102724.34
2023-05-19T05:21:01.345Z,102730.41
2023-05-19T05:23:32.479Z,102722.44
2023-05-19T05:26:08.311Z,102723.91
2023-05-19T05:28:38.663Z,102726.94
2023-05-19T05:31:08.922Z,102722.78
2023-05-19T05:33:41.408Z,102720.41
2023-05-19T05:36:11.424Z,102716.31
2023-05-19T05:38:41.574Z,102723.91
2023-05-19T05:41:11.242Z,102731.47
2023-05-19T05:43:42.011Z,102725.41
2023-05-19T05:46:12.022Z,102725.59
2023-05-19T05:48:46.250Z,102725.81
2023-05-19T05:51:16.317Z,102726.94
2023-05-19T05:53:49.125Z,102728.94
2023-05-19T05:56:19.362Z,102729.06
2023-05-19T05:58:54.123Z,102731.72
2023-05-19T06:01:24.402Z,102725.50
2023-05-19T06:03:56.836Z,102730.75
2023-05-19T06:06:27.385Z,102731.13
2023-05-19T06:08:58.178Z,102728.81
2023-05-19T06:11:29.105Z,102734.22
2023-05-19T06:14:01.255Z,102739.66
2023-05-19T06:16:50.320Z,102743.47
2023-05-19T06:19:23.063Z,102742.78
2023-05-19T06:21:53.926Z,102733.47
2023-05-19T06:24:24.224Z,102742.69
2023-05-19T06:26:54.169Z,102738.34
2023-05-19T06:29:24.419Z,102739.41
2023-05-19T06:31:56.706Z,102741.28
2023-05-19T06:34:29.428Z,102743.28
2023-05-19T06:36:59.221Z,102737.31
2023-05-19T06:39:29.307Z,102733.63
2023-05-19T06:41:59.219Z,102731.69
2023-05-19T06:44:47.871Z,102736.59
2023-05-19T06:47:20.250Z,102738.25
2023-05-19T06:49:55.661Z,102737.63
2023-05-19T06:52:29.398Z,102732.38
2023-05-19T06:55:00.233Z,102722.59
2023-05-19T06:57:30.080Z,102730.75
2023-05-19T07:00:00.396Z,102728.91
2023-05-19T07:02:30.396Z,102726.06
2023-05-19T07:05:02.591Z,102719.16
2023-05-19T07:07:32.407Z,102719.16
2023-05-19T07:10:02.694Z,102725.19
2023-05-19T07:12:34.676Z,102729.63
2023-05-19T07:15:05.197Z,102729.00
2023-05-19T07:17:35.065Z,102731.75
2023-05-19T07:20:10.334Z,102723.53
2023-05-19T07:22:40.224Z,102735.03
2023-05-19T07:25:11.492Z,102731.47
2023-05-19T07:27:44.494Z,102732.28
2023-05-19T07:30:16.155Z,102731.47
2023-05-19T07:32:54.274Z,102730.56
2023-05-19T07:35:27.899Z,102732.28
2023-05-19T07:37:58.235Z,102734.13
2023-05-19T07:40:43.320Z,102738.75
2023-05-19T07:43:16.662Z,102730.75
2023-05-19T07:45:58.350Z,102736.28
2023-05-19T07:48:28.577Z,102730.78
2023-05-19T07:51:13.535Z,102732.59
2023-05-19T07:53:47.500Z,102731.78
2023-05-19T07:56:19.531Z,102728.09
2023-05-19T07:58:49.513Z,102734.38
2023-05-19T08:01:22.571Z,102726.53
2023-05-19T08:03:53.613Z,102724.88
2023-05-19T08:06:26.172Z,102729.25
2023-05-19T08:08:56.193Z,102730.25
2023-05-19T08:11:26.381Z,102731.09
2023-05-19T08:13:57.074Z,102726.72
2023-05-19T08:16:33.713Z,102722.31
2023-05-19T08:19:05.699Z,102715.22
2023-05-19T08:21:37.692Z,102713.44
2023-05-19T08:24:08.166Z,102718.81
2023-05-19T08:26:38.378Z,102722.31
2023-05-19T08:29:08.728Z,102719.53
2023-05-19T08:31:40.406Z,102720.38
2023-05-19T08:34:10.952Z,102728.25
2023-05-19T08:36:49.358Z,102718.50
2023-05-19T08:39:29.636Z,102716.88
2023-05-19T08:42:00.470Z,102721.34
2023-05-19T08:44:31.087Z,102725.75
2023-05-19T08:47:08.628Z,102720.50
2023-05-19T08:49:42.674Z,102719.75
2023-05-19T08:52:19.153Z,102724.16
2023-05-19T08:54:55.628Z,102720.69
2023-05-19T08:57:26.833Z,102717.16
2023-05-19T08:59:58.133Z,102719.78
2023-05-19T09:02:29.425Z,102714.56
2023-05-19T09:05:00.189Z,102717.25
2023-05-19T09:07:39.055Z,102722.59
2023-05-19T09:10:15.118Z,102725.19
2023-05-19T09:12:50.257Z,102718.06
2023-05-19T09:15:22.223Z,102721.63
2023-05-19T09:17:53.384Z,102713.69
2023-05-19T09:20:24.425Z,102710.16
2023-05-19T09:22:57.965Z,102705.75
2023-05-19T09:25:31.524Z,102710.03
2023-05-19T09:28:09.696Z,102710.06
2023-05-19T09:30:40.559Z,102708.25
2023-05-19T09:33:19.320Z,102706.41
2023-05-19T09:35:50.969Z,102716.09
2023-05-19T09:38:26.046Z,102717.84
2023-05-19T09:40:58.317Z,102715.22
2023-05-19T09:43:30.091Z,102708.84
2023-05-19T09:46:01.767Z,102708.81
2023-05-19T09:48:32.163Z,102706.19
2023-05-19T09:51:02.810Z,102703.56
2023-05-19T09:53:35.789Z,102710.69
2023-05-19T09:56:05.674Z,102702.75
2023-05-19T09:58:37.003Z,102697.47
2023-05-19T10:01:07.081Z,102701.03
2023-05-19T10:03:38.112Z,102703.81
2023-05-19T10:06:09.494Z,102705.44
2023-05-19T10:08:42.713Z,102703.72
2023-05-19T10:11:13.651Z,102702.84
2023-05-19T10:13:44.244Z,102709.91
2023-05-19T10:16:14.138Z,102707.13
2023-05-19T10:18:44.682Z,102706.31
2023-05-19T10:21:15.572Z,102691.25
2023-05-19T10:23:47.713Z,102695.66
2023-05-19T10:26:17.733Z,102697.34
2023-05-19T10:28:48.023Z,102699.03
2023-05-19T10:31:21.126Z,102692.75
2023-05-19T10:33:58.523Z,102693.59
2023-05-19T10:36:35.831Z,102694.53
2023-05-19T10:39:09.141Z,102699.88
2023-05-19T10:41:42.261Z,102696.22
2023-05-19T10:44:19.701Z,102692.56
2023-05-19T10:46:49.701Z,102697.75
2023-05-19T10:49:22.246Z,102699.44
2023-05-19T10:51:53.834Z,102699.47
2023-05-19T10:54:39.586Z,102696.78
2023-05-19T10:57:15.905Z,102695.88
2023-05-19T10:59:46.201Z,102694.03
2023-05-19T11:02:30.759Z,102695.88
2023-05-19T11:05:10.995Z,102689.66
2023-05-19T11:07:45.433Z,102660.91
2023-05-19T11:10:15.493Z,102690.53
2023-05-19T11:12:47.395Z,102698.59
2023-05-19T11:15:17.731Z,102702.22
2023-05-19T11:17:50.954Z,102702.25
2023-05-19T11:20:24.708Z,102700.50
2023-05-19T11:23:06.880Z,102699.63
2023-05-19T11:25:44.287Z,102705.84
2023-05-19T11:28:17.765Z,102710.25
2023-05-19T11:30:52.378Z,102706.63
2023-05-19T11:33:27.859Z,102707.47
2023-05-19T11:35:59.630Z,102712.94
2023-05-19T11:38:30.461Z,102716.53
2023-05-19T11:41:02.191Z,102712.94
2023-05-19T11:43:34.929Z,102717.31
2023-05-19T11:46:05.120Z,102716.50
2023-05-19T11:48:35.103Z,102720.09
2023-05-19T11:51:05.444Z,102727.44
2023-05-19T11:53:36.515Z,102722.09
2023-05-19T11:56:06.822Z,102739.00
2023-05-19T11:58:38.856Z,102737.09
2023-05-19T12:01:10.597Z,102739.88
2023-05-19T12:03:40.688Z,102745.31
2023-05-19T12:06:11.334Z,102750.53
2023-05-19T12:08:42.299Z,102756.78
2023-05-19T12:11:13.192Z,102758.59
2023-05-19T12:13:44.573Z,102750.69
2023-05-19T12:16:14.929Z,102766.66
2023-05-19T12:18:44.983Z,102765.03
2023-05-19T12:21:15.282Z,102756.13
2023-05-19T12:23:46.213Z,102764.97
2023-05-19T12:26:16.341Z,102765.75
2023-05-19T12:28:48.205Z,102760.50
2023-05-19T12:31:18.729Z,102768.34
2023-05-19T12:33:52.189Z,102770.03
2023-05-19T12:36:23.210Z,102774.41
2023-05-19T12:38:55.759Z,102770.03
2023-05-19T12:41:30.272Z,102762.81
2023-05-19T12:44:17.454Z,102769.84
2023-05-19T12:46:47.894Z,102762.81
2023-05-19T12:49:17.856Z,102758.31
2023-05-19T12:51:53.954Z,102756.34
2023-05-19T12:54:23.945Z,102751.19
2023-05-19T12:56:54.363Z,102765.53
2023-05-19T12:59:37.945Z,102759.16
2023-05-19T13:02:09.175Z,102753.75
2023-05-19T13:04:39.237Z,102753.78
2023-05-19T13:07:09.406Z,102753.66
2023-05-19T13:09:39.186Z,102748.28
2023-05-19T13:12:09.645Z,102746.44
2023-05-19T13:14:42.118Z,102748.34
2023-05-19T13:17:12.383Z,102751.81
2023-05-19T13:19:42.511Z,102751.81
2023-05-19T13:22:12.825Z,102744.66
2023-05-19T13:24:42.557Z,102748.28
2023-05-19T13:27:12.966Z,102748.28
2023-05-19T13:29:44.299Z,102744.66
2023-05-19T13:32:14.815Z,102735.78
2023-05-19T13:34:45.277Z,102735.91
2023-05-19T13:37:15.552Z,102733.25
2023-05-19T13:39:46.300Z,102727.97
2023-05-19T13:42:17.743Z,102734.06
2023-05-19T13:44:49.253Z,102734.00
2023-05-19T13:47:19.773Z,102728.34
2023-05-19T13:49:49.658Z,102726.72
2023-05-19T13:52:21.066Z,102725.84
2023-05-19T13:54:50.916Z,102725.03
2023-05-19T13:57:21.029Z,102723.31
2023-05-19T14:00:01.980Z,102729.41
2023-05-19T14:02:43.444Z,102717.03
2023-05-19T14:05:13.474Z,102720.66
2023-05-19T14:07:44.962Z,102718.78
2023-05-19T14:10:14.778Z,102728.34
2023-05-19T14:13:04.968Z,102718.78
2023-05-19T14:15:38.352Z,102723.22
2023-05-19T14:18:08.874Z,102734.44
2023-05-19T14:20:38.703Z,102734.31
2023-05-19T14:23:09.463Z,102729.88
2023-05-19T14:25:39.466Z,102728.91
2023-05-19T14:28:11.243Z,102729.97
2023-05-19T14:30:42.561Z,102726.25
2023-05-19T14:33:13.302Z,102723.50
2023-05-19T14:35:43.068Z,102723.41
2023-05-19T14:38:13.300Z,102725.28
2023-05-19T14:40:43.361Z,102729.38
2023-05-19T14:43:14.617Z,102728.50
2023-05-19T14:45:50.272Z,102727.44
2023-05-19T14:48:22.948Z,102726.47
2023-05-19T14:50:52.847Z,102716.66
2023-05-19T14:53:25.772Z,102717.38
2023-05-19T14:55:56.451Z,102712.03
2023-05-19T14:58:29.533Z,102706.78
2023-05-19T15:01:01.837Z,102701.44
2023-05-19T15:03:31.900Z,102709.47
2023-05-19T15:06:02.434Z,102705.88
2023-05-19T15:08:32.703Z,102712.78
2023-05-19T15:11:02.722Z,102702.94
2023-05-19T15:13:33.976Z,102710.97
2023-05-19T15:16:17.579Z,102705.75
2023-05-19T15:18:48.736Z,102697.78
2023-05-19T15:21:19.036Z,102701.16
2023-05-19T15:23:49.504Z,102701.06
2023-05-19T15:26:19.222Z,102705.38
2023-05-19T15:28:49.203Z,102694.94
2023-05-19T15:31:22.579Z,102692.38
2023-05-19T15:33:54.046Z,102693.38
2023-05-19T15:36:24.853Z,102696.19
2023-05-19T15:38:55.078Z,102694.41
2023-05-19T15:41:26.204Z,102697.81
2023-05-19T15:43:57.741Z,102696.09
2023-05-19T15:46:29.035Z,102695.16
2023-05-19T15:48:59.147Z,102695.84
2023-05-19T15:51:30.504Z,102699.50
2023-05-19T15:54:02.783Z,102696.97
2023-05-19T15:56:48.768Z,102694.13
2023-05-19T15:59:22.929Z,102692.09
2023-05-19T16:01:55.035Z,102691.22
2023-05-19T16:04:25.381Z,102698.25
2023-05-19T16:06:55.069Z,102689.31
2023-05-19T16:09:25.243Z,102693.75
2023-05-19T16:11:54.986Z,102684.88
2023-05-19T16:14:27.640Z,102681.53
2023-05-19T16:17:02.241Z,102684.13
2023-05-19T16:19:32.554Z,102685.88
2023-05-19T16:22:02.548Z,102681.47
2023-05-19T16:24:32.844Z,102692.16
2023-05-19T16:27:02.973Z,102689.44
2023-05-19T16:29:33.361Z,102692.09
2023-05-19T16:32:04.671Z,102685.91
2023-05-19T16:34:34.956Z,102685.13
2023-05-19T16:37:05.016Z,102686.88
2023-05-19T16:39:51.713Z,102696.59
2023-05-19T16:42:28.338Z,102692.94
2023-05-19T16:46:42.202Z,102686.75
2023-05-19T16:49:41.901Z,102685.78
2023-05-19T16:52:12.207Z,102691.94
2023-05-19T16:54:42.696Z,102691.00
2023-05-19T16:57:15.084Z,102691.84
2023-05-19T16:59:44.944Z,102697.09
2023-05-19T17:02:15.757Z,102695.31
2023-05-19T17:04:47.853Z,102700.53
2023-05-19T17:07:19.313Z,102691.63
2023-05-19T17:09:50.456Z,102687.31
2023-05-19T17:12:22.620Z,102697.09
2023-05-19T17:14:53.237Z,102695.41
2023-05-19T17:17:24.249Z,102685.66
2023-05-19T17:19:55.545Z,102690.84
2023-05-19T17:22:27.007Z,102689.03
2023-05-19T17:24:58.250Z,102696.09
2023-05-19T17:27:29.393Z,102689.91
2023-05-19T17:29:59.302Z,102688.97
2023-05-19T17:32:39.305Z,102687.16
2023-05-19T17:35:11.145Z,102693.38
2023-05-19T17:37:41.515Z,102689.81
2023-05-19T17:40:15.681Z,102687.06
2023-05-19T17:42:47.217Z,102694.13
2023-05-19T17:45:16.897Z,102692.31
2023-05-19T17:47:47.296Z,102687.00
2023-05-19T17:50:21.803Z,102683.44
2023-05-19T17:52:52.829Z,102684.34
2023-05-19T17:55:31.018Z,102681.56
2023-05-19T17:58:03.908Z,102678.78
2023-05-19T18:00:37.078Z,102677.00
2023-05-19T18:03:12.162Z,102684.06
2023-05-19T18:05:47.859Z,102681.41
2023-05-19T18:08:23.412Z,102676.19
2023-05-19T18:10:59.360Z,102677.97
2023-05-19T18:13:35.306Z,102684.22
2023-05-19T18:16:09.458Z,102676.25
2023-05-19T18:18:45.424Z,102682.44
2023-05-19T18:21:21.868Z,102678.97
2023-05-19T18:23:56.934Z,102673.59
2023-05-19T18:26:34.752Z,102673.44
2023-05-19T18:29:10.063Z,102676.88
2023-05-19T18:31:43.678Z,102676.22
2023-05-19T18:34:22.512Z,102670.13
2023-05-19T18:36:59.631Z,102677.06
2023-05-19T18:39:34.501Z,102683.13
2023-05-19T18:42:09.569Z,102689.16
2023-05-19T18:44:46.232Z,102690.03
2023-05-19T18:47:20.155Z,102685.66
2023-05-19T18:49:54.856Z,102691.72
2023-05-19T18:52:29.882Z,102687.34
2023-05-19T18:55:04.742Z,102682.03
2023-05-19T18:57:36.264Z,102693.44
2023-05-19T19:00:08.217Z,102697.88
2023-05-19T19:02:38.963Z,102686.41
2023-05-19T19:05:11.828Z,102684.59
2023-05-19T19:07:45.304Z,102686.34
2023-05-19T19:10:20.608Z,102691.66
2023-05-19T19:12:59.411Z,102689.81
2023-05-19T19:15:36.019Z,102690.75
2023-05-19T19:18:09.402Z,102686.28
2023-05-19T19:20:40.856Z,102687.09
2023-05-19T19:23:14.405Z,102688.94
2023-05-19T19:25:49.045Z,102688.81
2023-05-19T19:28:21.412Z,102682.63
2023-05-19T19:30:54.591Z,102679.94
2023-05-19T19:33:27.664Z,102692.34
2023-05-19T19:35:59.011Z,102688.03
2023-05-19T19:38:32.242Z,102688.00
2023-05-19T19:41:02.892Z,102683.56
2023-05-19T19:43:33.652Z,102681.72
2023-05-19T19:46:07.312Z,102695.78
2023-05-19T19:48:37.411Z,102689.69
2023-05-19T19:51:07.398Z,102687.94
2023-05-19T19:53:41.301Z,102687.88
2023-05-19T19:56:14.583Z,102690.47
2023-05-19T19:58:47.668Z,102691.44
2023-05-19T20:01:21.534Z,102689.63
2023-05-19T20:03:55.174Z,102688.66
2023-05-19T20:06:29.764Z,102692.22
2023-05-19T20:09:01.685Z,102691.41
2023-05-19T20:11:32.909Z,102700.28
2023-05-19T20:14:03.703Z,102702.06
2023-05-19T20:16:37.764Z,102693.19
2023-05-19T20:19:11.315Z,102697.53
2023-05-19T20:21:41.782Z,102702.03
2023-05-19T20:24:13.344Z,102701.19
2023-05-19T20:26:44.423Z,102697.66
2023-05-19T20:29:14.178Z,102704.72
2023-05-19T20:31:46.980Z,102701.16
2023-05-19T20:34:17.041Z,102708.25
2023-05-19T20:36:47.469Z,102706.44
2023-05-19T20:39:22.137Z,102706.34
2023-05-19T20:41:52.621Z,102701.03
2023-05-19T20:44:22.640Z,102713.41
2023-05-19T20:46:54.943Z,102717.00
2023-05-19T20:49:24.806Z,102716.06
2023-05-19T20:51:54.982Z,102711.66
2023-05-19T20:54:26.434Z,102717.84
2023-05-19T20:56:56.669Z,102714.22
2023-05-19T20:59:26.512Z,102712.50
2023-05-19T21:01:56.797Z,102714.19
2023-05-19T21:04:27.741Z,102714.19
2023-05-19T21:06:58.062Z,102707.13
2023-05-19T21:09:29.249Z,102716.84
2023-05-19T21:12:00.716Z,102708.00
2023-05-19T21:14:30.613Z,102712.44
2023-05-19T21:17:01.065Z,102711.56
2023-05-19T21:19:31.105Z,102710.66
2023-05-19T21:22:01.213Z,102715.97
2023-05-19T21:24:32.570Z,102713.28
2023-05-19T21:27:02.948Z,102715.16
2023-05-19T21:29:32.762Z,102711.56
2023-05-19T21:32:02.905Z,102701.06
2023-05-19T21:34:32.594Z,102706.34
2023-05-19T21:37:02.686Z,102708.88
2023-05-19T21:39:34.004Z,102708.88
2023-05-19T21:42:04.254Z,102713.41
2023-05-19T21:44:33.978Z,102717.84
2023-05-19T21:47:04.137Z,102720.38
2023-05-19T21:49:33.881Z,102716.88
2023-05-19T21:52:03.986Z,102708.94
2023-05-19T21:54:35.357Z,102708.91
2023-05-19T21:57:05.616Z,102711.50
2023-05-19T21:59:35.235Z,102708.00
2023-05-19T22:02:05.969Z,102701.84
2023-05-19T22:04:36.148Z,102718.66
2023-05-19T22:07:07.244Z,102714.31
2023-05-19T22:09:38.483Z,102722.19
2023-05-19T22:12:09.237Z,102717.72
2023-05-19T22:14:38.872Z,102720.25
2023-05-19T22:17:08.971Z,102725.59
2023-05-19T22:19:38.653Z,102721.19
2023-05-19T22:22:14.120Z,102719.44
2023-05-19T22:24:45.712Z,102714.97
2023-05-19T22:27:15.957Z,102721.16
2023-05-19T22:29:45.800Z,102721.13
2023-05-19T22:32:18.281Z,102713.22
2023-05-19T22:34:48.159Z,102706.09
2023-05-19T22:37:18.222Z,102704.31
2023-05-19T22:39:50.579Z,102708.66
2023-05-19T22:42:20.688Z,102702.44
2023-05-19T22:44:50.410Z,102691.91
2023-05-19T22:47:41.915Z,102695.34
2023-05-19T22:50:54.428Z,102687.47
2023-05-19T22:53:31.539Z,102686.50
2023-05-19T22:56:02.859Z,102684.75
2023-05-19T22:58:32.891Z,102669.69
2023-05-19T23:01:02.760Z,102675.97
2023-05-19T23:03:32.829Z,102672.38
2023-05-19T23:06:02.540Z,102666.19
2023-05-19T23:08:32.871Z,102673.34
2023-05-19T23:11:04.090Z,102685.72
2023-05-19T23:13:34.189Z,102689.31
2023-05-19T23:16:05.007Z,102696.19
2023-05-19T23:18:35.105Z,102695.31
2023-05-19T23:21:04.849Z,102704.09
2023-05-19T23:23:36.270Z,102701.41
2023-05-19T23:26:07.438Z,102711.22
2023-05-19T23:28:37.601Z,102699.72
2023-05-19T23:31:07.492Z,102705.94
2023-05-19T23:33:37.737Z,102704.19
2023-05-19T23:36:08.021Z,102709.53
2023-05-19T23:38:38.692Z,102715.66
2023-05-19T23:41:09.892Z,102709.53
2023-05-19T23:43:41.028Z,102712.16
2023-05-19T23:46:10.849Z,102718.22
2023-05-19T23:48:41.068Z,102715.66
2023-05-19T23:51:10.750Z,102705.88
2023-05-19T23:53:40.850Z,102712.13
2023-05-19T23:56:11.955Z,102703.28
2023-05-19T23:58:41.998Z,102704.16
